Time;durP1;ratioP1;P1;durP2;ratioP2;P2;SDS_P1;SDS_P2;PMS_P1;PMS_P2;Temp;Humidity;BMP_temperature;BMP_pressure;BME280_temperature;BME280_humidity;BME280_pressure;Samples;Min_cycle;Max_cycle;Signal;HPM_P1;HPM_P2
2023/02/28 00:01:12;;;;;;;1.83;1.70;;;0.30;98.00;;;;;;5091143;28;20459;-65
2023/02/28 00:03:39;;;;;;;2.03;1.80;;;0.30;98.00;;;;;;5091464;28;20456;-65
2023/02/28 00:06:09;;;;;;;1.50;1.40;;;0.30;98.00;;;;;;5091093;28;20455;-65
2023/02/28 00:08:36;;;;;;;1.73;1.40;;;0.40;98.00;;;;;;5090911;28;20464;-65
2023/02/28 00:11:08;;;;;;;1.77;1.43;;;0.20;98.00;;;;;;5090850;28;20487;-64
2023/02/28 00:13:38;;;;;;;3.23;1.90;;;0.20;98.00;;;;;;5090923;28;20455;-64
2023/02/28 00:16:07;;;;;;;1.60;1.43;;;0.30;98.00;;;;;;5090714;28;20455;-64
2023/02/28 00:18:35;;;;;;;1.90;1.80;;;0.40;98.00;;;;;;5091005;28;20462;-64
2023/02/28 00:21:02;;;;;;;2.17;1.37;;;0.30;98.00;;;;;;5090966;28;20466;-64
2023/02/28 00:23:29;;;;;;;2.13;1.90;;;0.30;98.00;;;;;;5089636;28;20455;-64
2023/02/28 00:25:57;;;;;;;1.60;1.50;;;0.30;98.00;;;;;;5090772;28;20459;-64
2023/02/28 00:28:26;;;;;;;5.73;2.33;;;0.30;98.00;;;;;;5089620;28;20963;-64
2023/02/28 00:30:53;;;;;;;2.30;1.40;;;0.40;98.00;;;;;;5094146;28;20482;-64
2023/02/28 00:33:20;;;;;;;1.73;1.57;;;0.30;98.00;;;;;;5094286;28;20454;-64
2023/02/28 00:35:48;;;;;;;1.67;1.50;;;0.30;98.00;;;;;;5094062;28;20793;-64
2023/02/28 00:38:16;;;;;;;1.67;1.60;;;0.10;98.00;;;;;;5094187;28;20469;-64
2023/02/28 00:40:43;;;;;;;1.70;1.60;;;0.00;98.00;;;;;;5093853;28;20471;-65
2023/02/28 00:43:11;;;;;;;1.67;1.57;;;0.20;98.00;;;;;;5094392;28;20980;-64
2023/02/28 00:45:39;;;;;;;1.70;1.37;;;0.10;98.00;;;;;;5093949;28;20459;-64
2023/02/28 00:48:07;;;;;;;5.40;1.60;;;0.10;98.00;;;;;;5094089;28;20457;-65
2023/02/28 00:50:34;;;;;;;1.30;1.23;;;0.20;98.00;;;;;;5093837;28;20574;-64
2023/02/28 00:53:01;;;;;;;1.63;1.53;;;0.20;98.00;;;;;;5094257;28;20454;-64
2023/02/28 00:55:28;;;;;;;1.30;1.20;;;0.10;98.00;;;;;;5092905;28;20460;-64
2023/02/28 00:57:55;;;;;;;2.63;1.40;;;0.10;98.00;;;;;;5093779;28;20468;-64
2023/02/28 01:00:22;;;;;;;2.93;2.13;;;-0.10;98.00;;;;;;5093958;28;20888;-64
2023/02/28 01:02:51;;;;;;;1.90;1.60;;;0.00;98.00;;;;;;5094019;28;20463;-65
2023/02/28 01:05:18;;;;;;;2.13;1.83;;;0.00;98.00;;;;;;5093895;28;20463;-64
2023/02/28 01:07:45;;;;;;;2.67;1.50;;;0.00;98.00;;;;;;5093768;28;21064;-64
2023/02/28 01:10:12;;;;;;;2.00;1.60;;;0.10;98.00;;;;;;5093541;28;20478;-64
2023/02/28 01:12:39;;;;;;;2.60;1.90;;;0.00;98.00;;;;;;5093584;28;20947;-64
2023/02/28 01:15:08;;;;;;;2.40;1.47;;;0.00;98.00;;;;;;5093574;28;20532;-64
2023/02/28 01:17:35;;;;;;;1.67;1.60;;;0.00;98.00;;;;;;5093420;28;20820;-64
2023/02/28 01:20:03;;;;;;;1.90;1.50;;;-0.10;98.00;;;;;;5093478;28;20466;-64
2023/02/28 01:22:30;;;;;;;3.33;1.93;;;-0.10;98.00;;;;;;5093292;28;20456;-65
2023/02/28 01:24:57;;;;;;;2.13;1.83;;;0.00;98.00;;;;;;5092207;28;20477;-64
2023/02/28 01:27:26;;;;;;;2.33;2.17;;;0.10;98.00;;;;;;5093184;28;20951;-64
2023/02/28 01:29:53;;;;;;;2.77;2.17;;;0.10;98.00;;;;;;5093043;28;20486;-64
2023/02/28 01:32:20;;;;;;;1.73;1.37;;;0.00;98.00;;;;;;5093089;28;20461;-64
2023/02/28 01:34:47;;;;;;;2.30;1.83;;;-0.10;98.00;;;;;;5093198;28;20530;-64
2023/02/28 01:37:15;;;;;;;2.67;1.50;;;-0.20;98.00;;;;;;5093053;28;20455;-64
2023/02/28 01:39:42;;;;;;;2.50;1.50;;;-0.10;98.00;;;;;;5092971;28;20459;-64
2023/02/28 01:42:11;;;;;;;2.73;1.63;;;-0.10;98.00;;;;;;5092126;28;21035;-64
2023/02/28 01:45:05;;;;;;;10.20;2.23;;;-0.10;98.00;;;;;;5092887;28;20537;-64
2023/02/28 01:47:36;;;;;;;1.47;1.43;;;-0.20;98.00;;;;;;5093029;28;20462;-64
2023/02/28 01:50:06;;;;;;;1.87;1.77;;;-0.20;98.00;;;;;;5092726;28;20791;-64
2023/02/28 01:52:35;;;;;;;2.07;1.63;;;-0.10;98.00;;;;;;5093129;28;20949;-65
2023/02/28 01:55:07;;;;;;;2.43;1.73;;;-0.10;98.00;;;;;;5092602;28;20447;-65
2023/02/28 01:57:39;;;;;;;2.50;1.90;;;-0.20;98.00;;;;;;5092946;28;20485;-64
2023/02/28 02:00:14;;;;;;;2.43;1.70;;;-0.20;98.00;;;;;;5092922;28;20504;-64
2023/02/28 02:02:46;;;;;;;1.40;1.30;;;-0.20;98.00;;;;;;5091567;28;20455;-64
2023/02/28 02:05:17;;;;;;;1.20;1.20;;;-0.30;98.00;;;;;;5092698;28;20463;-64
2023/02/28 02:07:48;;;;;;;2.53;1.97;;;-0.20;98.00;;;;;;5092632;28;20458;-64
2023/02/28 02:10:17;;;;;;;2.63;1.43;;;-0.20;98.00;;;;;;5092278;28;20495;-64
2023/02/28 02:13:01;;;;;;;3.73;1.83;;;-0.30;98.00;;;;;;5092465;28;20447;-64
2023/02/28 02:15:33;;;;;;;4.47;1.90;;;-0.30;98.00;;;;;;5092196;28;20463;-64
2023/02/28 02:18:10;;;;;;;2.40;1.97;;;-0.30;98.00;;;;;;5092416;28;20991;-64
2023/02/28 02:20:59;;;;;;;2.27;1.93;;;-0.30;98.00;;;;;;5092350;28;20466;-64
2023/02/28 02:24:10;;;;;;;2.40;1.87;;;-0.30;98.00;;;;;;5092355;28;20826;-64
2023/02/28 02:27:23;;;;;;;1.63;1.57;;;-0.30;98.00;;;;;;5062824;28;20541;-65
2023/02/28 02:30:20;;;;;;;2.23;2.13;;;-0.30;98.00;;;;;;5029609;28;20527;-64
2023/02/28 02:33:06;;;;;;;2.07;1.77;;;-0.30;98.00;;;;;;5092052;28;20524;-64
2023/02/28 02:35:44;;;;;;;2.53;1.47;;;-0.30;98.00;;;;;;5091926;28;20466;-64
2023/02/28 02:38:20;;;;;;;2.57;1.80;;;-0.20;98.00;;;;;;5091955;28;20557;-64
2023/02/28 02:40:56;;;;;;;2.30;1.80;;;-0.20;98.00;;;;;;5091918;28;20593;-65
2023/02/28 02:43:30;;;;;;;2.00;1.80;;;-0.20;98.00;;;;;;5091897;28;20556;-64
2023/02/28 02:46:05;;;;;;;2.10;1.80;;;-0.30;98.00;;;;;;5092179;28;20520;-64
2023/02/28 02:48:37;;;;;;;3.53;1.80;;;-0.30;98.00;;;;;;5091767;28;20438;-64
2023/02/28 02:51:12;;;;;;;4.07;2.10;;;-0.20;98.00;;;;;;5091554;28;20490;-64
2023/02/28 02:53:45;;;;;;;3.00;1.77;;;-0.20;98.00;;;;;;5089671;28;21144;-64
2023/02/28 02:56:14;;;;;;;3.13;1.53;;;0.00;98.00;;;;;;5091637;28;20512;-64
2023/02/28 02:58:44;;;;;;;2.50;2.30;;;-0.10;98.00;;;;;;5092067;28;20459;-64
2023/02/28 03:01:15;;;;;;;2.23;1.87;;;-0.20;98.00;;;;;;5091539;28;20463;-64
2023/02/28 03:03:43;;;;;;;2.53;1.90;;;-0.20;98.00;;;;;;5091472;28;20469;-64
2023/02/28 03:06:11;;;;;;;3.10;1.87;;;-0.10;98.00;;;;;;5091264;28;20451;-64
2023/02/28 03:08:39;;;;;;;3.00;1.87;;;-0.20;98.00;;;;;;5091545;28;20871;-64
2023/02/28 03:11:12;;;;;;;1.50;1.50;;;-0.30;98.00;;;;;;5091241;28;20489;-64
2023/02/28 03:13:53;;;;;;;1.70;1.63;;;-0.30;98.00;;;;;;5091441;28;20537;-64
2023/02/28 03:16:36;;;;;;;3.20;1.93;;;-0.40;98.00;;;;;;5090029;28;20463;-64
2023/02/28 03:19:30;;;;;;;5.40;2.47;;;-0.30;98.00;;;;;;5090302;28;20504;-64
2023/02/28 03:22:23;;;;;;;4.37;2.03;;;-0.20;98.00;;;;;;5091678;28;20450;-64
2023/02/28 03:24:56;;;;;;;2.63;1.57;;;-0.20;98.00;;;;;;5060172;28;20465;-64
2023/02/28 03:27:28;;;;;;;1.93;1.83;;;-0.20;98.00;;;;;;5090545;28;20458;-64
2023/02/28 03:30:02;;;;;;;2.00;1.53;;;-0.10;98.00;;;;;;5091458;28;20459;-64
2023/02/28 03:32:34;;;;;;;2.70;1.70;;;-0.10;98.00;;;;;;5091189;28;20502;-64
2023/02/28 03:35:07;;;;;;;1.57;1.43;;;0.00;98.00;;;;;;5091090;28;20505;-64
2023/02/28 03:37:46;;;;;;;1.97;1.87;;;0.00;98.00;;;;;;5091151;28;20455;-64
2023/02/28 03:40:16;;;;;;;2.03;1.47;;;0.00;98.00;;;;;;5091360;28;20450;-64
2023/02/28 03:42:47;;;;;;;3.10;2.20;;;0.10;98.00;;;;;;5091405;28;21026;-64
2023/02/28 03:45:20;;;;;;;3.10;2.23;;;0.00;98.00;;;;;;5089702;28;20470;-64
2023/02/28 03:47:53;;;;;;;2.43;1.70;;;0.10;98.00;;;;;;5091250;28;20524;-64
2023/02/28 03:50:24;;;;;;;3.83;2.23;;;0.10;98.00;;;;;;5091029;28;20839;-64
2023/02/28 03:53:01;;;;;;;1.93;1.53;;;0.10;98.00;;;;;;5091147;28;20463;-64
2023/02/28 03:55:33;;;;;;;2.23;1.63;;;0.00;98.00;;;;;;5091348;28;20466;-64
2023/02/28 03:58:06;;;;;;;1.50;1.40;;;0.00;98.00;;;;;;5091093;28;20463;-64
2023/02/28 04:00:37;;;;;;;2.90;2.10;;;0.10;98.00;;;;;;5091369;28;20539;-64
2023/02/28 04:03:05;;;;;;;1.80;1.50;;;0.20;98.00;;;;;;5091040;28;20826;-64
2023/02/28 04:05:33;;;;;;;3.00;2.03;;;0.20;98.00;;;;;;5094159;28;20794;-64
2023/02/28 04:08:07;;;;;;;2.20;1.70;;;0.20;98.00;;;;;;5094942;28;20454;-64
2023/02/28 04:10:34;;;;;;;3.03;2.47;;;0.30;98.00;;;;;;5094734;28;20482;-64
2023/02/28 04:13:01;;;;;;;2.83;1.73;;;0.20;98.00;;;;;;5094740;28;20461;-64
2023/02/28 04:15:28;;;;;;;2.30;2.10;;;0.20;98.00;;;;;;5093476;28;20798;-64
2023/02/28 04:17:55;;;;;;;2.23;1.70;;;0.20;98.00;;;;;;5094698;28;20462;-64
2023/02/28 04:20:22;;;;;;;2.23;1.73;;;0.20;98.00;;;;;;5094557;28;20463;-64
2023/02/28 04:22:50;;;;;;;2.60;2.00;;;0.20;98.00;;;;;;5094399;28;20462;-64
2023/02/28 04:25:18;;;;;;;2.13;1.97;;;0.10;98.00;;;;;;5094672;28;20463;-64
2023/02/28 04:27:46;;;;;;;2.37;2.23;;;0.10;98.00;;;;;;5094426;28;20451;-64
2023/02/28 04:30:13;;;;;;;2.50;1.80;;;0.00;98.00;;;;;;5094260;28;20882;-64
2023/02/28 04:32:40;;;;;;;2.90;2.10;;;0.00;98.00;;;;;;5094443;28;20482;-64
2023/02/28 04:35:09;;;;;;;2.60;1.93;;;-0.10;98.00;;;;;;5094201;28;20573;-64
2023/02/28 04:37:36;;;;;;;2.63;1.67;;;-0.10;98.00;;;;;;5094132;28;20466;-64
2023/02/28 04:40:04;;;;;;;4.80;1.70;;;-0.10;98.00;;;;;;5094261;28;20810;-64
2023/02/28 04:42:35;;;;;;;1.80;1.67;;;-0.10;98.00;;;;;;5093973;28;20467;-64
2023/02/28 04:45:03;;;;;;;6.40;2.03;;;0.00;98.00;;;;;;5094137;28;20455;-64
2023/02/28 04:47:30;;;;;;;4.30;1.97;;;0.10;98.00;;;;;;5094164;28;20477;-64
2023/02/28 04:49:57;;;;;;;2.00;1.50;;;0.00;98.00;;;;;;5094081;28;20462;-64
2023/02/28 04:52:24;;;;;;;1.77;1.53;;;0.00;98.00;;;;;;5092986;28;20972;-65
2023/02/28 04:54:51;;;;;;;2.43;2.00;;;0.00;98.00;;;;;;5093862;28;20459;-64
2023/02/28 04:57:18;;;;;;;1.80;1.70;;;0.00;98.00;;;;;;5094026;28;20991;-64
2023/02/28 04:59:46;;;;;;;4.90;1.97;;;0.00;98.00;;;;;;5094084;28;20462;-64
2023/02/28 05:02:14;;;;;;;2.70;1.83;;;0.10;98.00;;;;;;5093928;28;20466;-64
2023/02/28 05:04:41;;;;;;;2.10;1.97;;;0.20;98.00;;;;;;5093497;28;20459;-64
2023/02/28 05:07:09;;;;;;;1.20;1.20;;;0.20;98.00;;;;;;5094169;28;20454;-64
2023/02/28 05:09:36;;;;;;;1.70;1.43;;;0.30;98.00;;;;;;5092264;28;20477;-64
2023/02/28 05:12:03;;;;;;;4.23;2.20;;;0.30;98.00;;;;;;5093645;28;20542;-64
2023/02/28 05:14:30;;;;;;;1.83;1.73;;;0.30;98.00;;;;;;5093475;28;20512;-64
2023/02/28 05:16:59;;;;;;;5.00;2.87;;;0.30;98.00;;;;;;5092279;28;20466;-64
2023/02/28 05:19:26;;;;;;;1.60;1.50;;;0.30;98.00;;;;;;5093383;28;20463;-64
2023/02/28 05:21:55;;;;;;;2.90;1.73;;;0.30;98.00;;;;;;5092293;28;20459;-64
2023/02/28 05:24:23;;;;;;;2.40;1.60;;;0.30;98.00;;;;;;5092277;28;20463;-64
2023/02/28 05:26:52;;;;;;;3.13;1.87;;;0.40;98.00;;;;;;5092272;28;20529;-64
2023/02/28 05:29:22;;;;;;;4.47;2.40;;;0.30;98.00;;;;;;5093450;28;20458;-64
2023/02/28 05:31:49;;;;;;;3.00;2.07;;;0.30;98.00;;;;;;5092131;28;20982;-64
2023/02/28 05:34:18;;;;;;;4.00;2.37;;;0.20;98.00;;;;;;5093125;28;20976;-64
2023/02/28 05:36:45;;;;;;;2.17;2.00;;;0.30;98.00;;;;;;5093048;28;20454;-64
2023/02/28 05:39:13;;;;;;;2.30;2.07;;;0.40;98.00;;;;;;5093054;28;20516;-64
2023/02/28 05:41:42;;;;;;;2.20;2.00;;;0.40;98.00;;;;;;5092965;28;21042;-64
2023/02/28 05:44:09;;;;;;;2.37;1.83;;;0.30;98.00;;;;;;5092980;28;20951;-64
2023/02/28 05:46:36;;;;;;;4.13;2.73;;;0.30;98.00;;;;;;5092828;28;20467;-64
2023/02/28 05:49:03;;;;;;;5.30;2.87;;;0.40;98.00;;;;;;5093135;28;20459;-64
2023/02/28 05:51:31;;;;;;;3.27;1.83;;;0.50;98.00;;;;;;5093201;28;20483;-64
2023/02/28 05:54:01;;;;;;;3.87;2.37;;;0.40;98.00;;;;;;5093201;28;20498;-64
2023/02/28 05:56:28;;;;;;;2.73;1.63;;;0.40;98.00;;;;;;5092537;28;20508;-64
2023/02/28 05:58:55;;;;;;;5.63;2.63;;;0.50;98.00;;;;;;5092755;28;20768;-64
2023/02/28 06:01:34;;;;;;;2.17;1.97;;;0.50;98.00;;;;;;5092703;28;20940;-64
2023/02/28 06:04:03;;;;;;;1.80;1.70;;;0.60;98.00;;;;;;5092707;28;20462;-64
2023/02/28 06:06:33;;;;;;;7.13;2.50;;;0.50;98.00;;;;;;5091298;28;20974;-64
2023/02/28 06:09:01;;;;;;;3.17;1.83;;;0.60;98.00;;;;;;5092835;28;20454;-64
2023/02/28 06:11:28;;;;;;;4.90;2.70;;;0.60;98.00;;;;;;5092268;28;21002;-64
2023/02/28 06:13:57;;;;;;;3.27;2.10;;;0.60;98.00;;;;;;5092417;28;20463;-64
2023/02/28 06:16:25;;;;;;;5.43;2.30;;;0.50;98.00;;;;;;5092098;28;20458;-64
2023/02/28 06:18:52;;;;;;;3.87;2.30;;;0.40;98.00;;;;;;5092388;28;20462;-64
2023/02/28 06:21:19;;;;;;;3.90;2.63;;;0.50;98.00;;;;;;5092219;28;20459;-64
2023/02/28 06:23:48;;;;;;;4.53;1.80;;;0.50;98.00;;;;;;5090850;28;20454;-64
2023/02/28 06:26:15;;;;;;;3.90;2.17;;;0.50;98.00;;;;;;5092260;28;20744;-64
2023/02/28 06:28:42;;;;;;;5.40;2.60;;;0.60;98.00;;;;;;5090678;28;20455;-64
2023/02/28 06:31:11;;;;;;;3.50;2.10;;;0.70;98.00;;;;;;5091807;28;20906;-64
2023/02/28 06:33:39;;;;;;;2.27;2.03;;;0.70;98.00;;;;;;5092034;28;20459;-64
2023/02/28 06:36:07;;;;;;;3.93;3.03;;;0.60;98.00;;;;;;5091818;28;20486;-64
2023/02/28 06:38:35;;;;;;;2.93;2.03;;;0.50;98.00;;;;;;5091995;28;20527;-64
2023/02/28 06:41:04;;;;;;;7.40;2.50;;;0.50;98.00;;;;;;5091681;28;20463;-64
2023/02/28 06:43:34;;;;;;;5.40;3.27;;;0.60;98.00;;;;;;5091841;28;20454;-64
2023/02/28 06:46:02;;;;;;;4.60;2.50;;;0.50;98.00;;;;;;5091870;28;20459;-64
2023/02/28 06:48:29;;;;;;;2.90;2.40;;;0.50;98.00;;;;;;5092200;28;20468;-64
2023/02/28 06:51:03;;;;;;;2.60;1.90;;;0.50;98.00;;;;;;5090654;28;20462;-64
2023/02/28 06:53:32;;;;;;;4.67;1.70;;;0.60;98.00;;;;;;5091761;28;20508;-64
2023/02/28 06:55:59;;;;;;;4.03;2.57;;;0.60;98.00;;;;;;5091789;28;20827;-64
2023/02/28 06:58:28;;;;;;;3.20;2.07;;;0.60;98.00;;;;;;5091675;28;20952;-64
2023/02/28 07:00:56;;;;;;;3.40;2.03;;;0.60;98.00;;;;;;5091713;28;20481;-62
2023/02/28 07:03:23;;;;;;;3.50;2.17;;;0.70;98.00;;;;;;5091530;28;20803;-60
2023/02/28 07:05:50;;;;;;;4.93;2.67;;;0.60;98.00;;;;;;5090619;28;20466;-60
2023/02/28 07:08:17;;;;;;;5.40;2.53;;;0.60;98.00;;;;;;5091582;28;20502;-60
2023/02/28 07:10:45;;;;;;;1.87;1.83;;;0.60;98.00;;;;;;5091529;28;20462;-60
2023/02/28 07:13:12;;;;;;;4.00;3.07;;;0.60;98.00;;;;;;5091347;28;20486;-60
2023/02/28 07:15:43;;;;;;;4.27;2.27;;;0.70;98.00;;;;;;5091208;28;20451;-60
2023/02/28 07:18:10;;;;;;;7.07;3.33;;;0.80;98.00;;;;;;5091700;28;20858;-60
2023/02/28 07:20:37;;;;;;;2.93;1.80;;;0.80;98.00;;;;;;5091331;28;20463;-60
2023/02/28 07:23:04;;;;;;;3.90;2.53;;;0.80;98.00;;;;;;5091523;28;20941;-60
2023/02/28 07:25:31;;;;;;;2.23;1.93;;;0.80;98.00;;;;;;5091166;28;20469;-60
2023/02/28 07:28:02;;;;;;;2.27;2.07;;;0.80;98.00;;;;;;5091190;28;20508;-60
2023/02/28 07:30:29;;;;;;;3.23;2.37;;;0.80;98.00;;;;;;5091128;28;20455;-60
2023/02/28 07:33:00;;;;;;;3.97;2.83;;;0.90;98.00;;;;;;5091254;28;21070;-60
2023/02/28 07:35:27;;;;;;;2.60;2.43;;;0.90;98.00;;;;;;5091108;28;20459;-60
2023/02/28 07:37:55;;;;;;;8.50;2.70;;;1.00;98.00;;;;;;5091202;28;20463;-60
2023/02/28 07:40:22;;;;;;;3.97;2.70;;;1.00;98.00;;;;;;5094445;28;20478;-60
2023/02/28 07:42:49;;;;;;;4.47;2.10;;;1.00;98.00;;;;;;5095458;28;20462;-60
2023/02/28 07:45:17;;;;;;;4.73;2.00;;;1.10;98.00;;;;;;5095282;28;20456;-60
2023/02/28 07:47:44;;;;;;;3.70;2.80;;;1.00;98.00;;;;;;5095688;28;20515;-60
2023/02/28 07:50:15;;;;;;;3.17;2.50;;;1.10;98.00;;;;;;5095395;28;20462;-60
2023/02/28 07:52:43;;;;;;;4.30;2.90;;;1.00;98.00;;;;;;5095042;28;20549;-60
2023/02/28 07:55:13;;;;;;;3.23;1.73;;;1.10;98.00;;;;;;5094942;28;20968;-60
2023/02/28 07:57:40;;;;;;;5.00;3.07;;;1.00;98.00;;;;;;5095005;28;20447;-60
2023/02/28 08:00:12;;;;;;;4.10;2.70;;;1.10;98.00;;;;;;5094949;28;21026;-60
2023/02/28 08:02:39;;;;;;;4.60;2.40;;;1.10;98.00;;;;;;5095006;28;20539;-60
2023/02/28 08:05:07;;;;;;;3.87;2.20;;;1.10;98.00;;;;;;5094865;28;20488;-60
2023/02/28 08:07:36;;;;;;;3.53;3.00;;;1.20;98.00;;;;;;5093886;28;20527;-60
2023/02/28 08:10:05;;;;;;;8.67;2.57;;;1.20;98.00;;;;;;5094740;28;20466;-60
2023/02/28 08:12:33;;;;;;;3.50;2.70;;;1.20;98.00;;;;;;5093426;28;20947;-60
2023/02/28 08:15:00;;;;;;;7.43;2.50;;;1.20;98.00;;;;;;5094564;28;20504;-60
2023/02/28 08:17:28;;;;;;;6.10;3.63;;;1.30;98.00;;;;;;5094603;28;20452;-60
2023/02/28 08:19:55;;;;;;;6.80;2.93;;;1.30;98.00;;;;;;5094735;28;20533;-60
2023/02/28 08:22:22;;;;;;;2.53;1.97;;;1.30;98.00;;;;;;5094355;28;20542;-60
2023/02/28 08:24:50;;;;;;;3.10;1.87;;;1.20;98.00;;;;;;5092183;28;20468;-60
2023/02/28 08:27:17;;;;;;;4.10;2.13;;;1.20;98.00;;;;;;5087258;28;20454;-60
2023/02/28 08:29:46;;;;;;;3.67;2.57;;;1.30;98.00;;;;;;5094454;28;20805;-60
2023/02/28 08:32:13;;;;;;;5.13;2.80;;;1.20;98.00;;;;;;5094239;28;20482;-60
2023/02/28 08:34:43;;;;;;;7.33;3.00;;;1.20;98.00;;;;;;5093981;28;20520;-60
2023/02/28 08:37:11;;;;;;;3.30;2.30;;;1.20;98.00;;;;;;5094328;28;20570;-60
2023/02/28 08:39:39;;;;;;;8.87;3.43;;;1.30;98.00;;;;;;5091180;28;20451;-60
2023/02/28 08:42:08;;;;;;;4.97;3.13;;;1.30;98.00;;;;;;5074033;28;20823;-60
2023/02/28 08:44:35;;;;;;;5.50;3.23;;;1.40;98.00;;;;;;5074413;28;20456;-60
2023/02/28 08:47:05;;;;;;;3.97;2.57;;;1.50;98.00;;;;;;5074147;28;20453;-60
2023/02/28 08:49:32;;;;;;;3.57;2.90;;;1.50;98.00;;;;;;5073924;28;20453;-60
2023/02/28 08:51:59;;;;;;;5.67;2.60;;;1.70;98.00;;;;;;5073716;28;20459;-60
2023/02/28 08:54:30;;;;;;;4.43;2.57;;;1.70;98.00;;;;;;5072540;28;20514;-60
2023/02/28 08:56:58;;;;;;;6.67;3.20;;;1.70;98.00;;;;;;5073370;28;20456;-60
2023/02/28 08:59:26;;;;;;;2.53;2.37;;;1.70;98.00;;;;;;5073323;28;20460;-60
2023/02/28 09:01:53;;;;;;;4.97;2.70;;;1.70;98.00;;;;;;5073382;28;20527;-60
2023/02/28 09:04:20;;;;;;;2.90;2.33;;;1.80;98.00;;;;;;5073379;28;20467;-60
2023/02/28 09:06:48;;;;;;;3.70;2.60;;;1.80;98.00;;;;;;5073285;28;20483;-60
2023/02/28 09:09:15;;;;;;;2.30;2.00;;;1.90;98.00;;;;;;5073165;28;20478;-61
2023/02/28 09:11:42;;;;;;;3.70;2.03;;;2.10;98.00;;;;;;5073160;28;20705;-60
2023/02/28 09:14:09;;;;;;;4.87;2.63;;;2.10;98.00;;;;;;5073143;28;20488;-60
2023/02/28 09:16:38;;;;;;;3.43;2.30;;;2.20;98.00;;;;;;5072750;28;20449;-60
2023/02/28 09:19:05;;;;;;;5.57;3.30;;;2.20;98.00;;;;;;5073079;28;20464;-59
2023/02/28 09:21:33;;;;;;;4.47;3.37;;;2.20;98.00;;;;;;5071403;28;20525;-60
2023/02/28 09:24:00;;;;;;;6.23;3.13;;;2.20;98.00;;;;;;5071916;28;20500;-60
2023/02/28 09:26:28;;;;;;;4.50;2.60;;;2.30;98.00;;;;;;5073155;28;20569;-60
2023/02/28 09:28:58;;;;;;;6.00;2.97;;;2.40;98.00;;;;;;5072984;28;20955;-60
2023/02/28 09:31:29;;;;;;;5.57;3.43;;;2.40;98.00;;;;;;5072728;28;20874;-60
2023/02/28 09:33:59;;;;;;;5.17;3.30;;;2.50;98.00;;;;;;5072726;28;20488;-60
2023/02/28 09:36:28;;;;;;;6.63;2.63;;;2.50;98.00;;;;;;5073026;28;20833;-61
2023/02/28 09:38:55;;;;;;;6.30;2.57;;;2.50;98.00;;;;;;5072885;28;20464;-61
2023/02/28 09:41:25;;;;;;;6.87;3.57;;;2.70;98.00;;;;;;5072655;28;20539;-61
2023/02/28 09:43:56;;;;;;;3.37;2.43;;;2.90;98.00;;;;;;5085306;28;20460;-61
2023/02/28 09:46:28;;;;;;;6.47;3.67;;;;;;;;;;5086662;28;20533;-61
2023/02/28 09:48:58;;;;;;;5.40;2.90;;;2.80;98.00;;;;;;5093417;28;20835;-61
2023/02/28 09:51:48;;;;;;;3.17;2.17;;;2.90;98.00;;;;;;5092715;28;20992;-61
2023/02/28 09:54:18;;;;;;;3.23;2.40;;;3.10;98.00;;;;;;5092701;28;20603;-61
2023/02/28 09:56:51;;;;;;;4.63;2.77;;;3.20;98.00;;;;;;5092435;28;20972;-61
2023/02/28 09:59:30;;;;;;;3.93;3.23;;;3.30;98.00;;;;;;5088151;28;20453;-61
2023/02/28 10:02:11;;;;;;;2.97;2.40;;;3.30;98.00;;;;;;5071645;28;20973;-61
2023/02/28 10:04:51;;;;;;;5.23;2.70;;;3.30;98.00;;;;;;5087932;28;20824;-61
2023/02/28 10:07:28;;;;;;;6.50;3.30;;;3.30;98.00;;;;;;5092243;28;20459;-60
2023/02/28 10:10:01;;;;;;;4.70;3.00;;;3.40;98.00;;;;;;5091926;28;20451;-60
2023/02/28 10:12:30;;;;;;;4.30;2.50;;;3.40;98.00;;;;;;5091955;28;20570;-61
2023/02/28 10:15:02;;;;;;;5.73;2.90;;;3.40;98.00;;;;;;5092066;28;20459;-61
2023/02/28 10:17:38;;;;;;;2.83;2.03;;;3.30;98.00;;;;;;5090877;28;20463;-61
2023/02/28 10:20:13;;;;;;;7.50;3.17;;;3.30;98.00;;;;;;5091958;28;20514;-61
2023/02/28 10:22:50;;;;;;;4.50;2.57;;;3.30;98.00;;;;;;5092029;28;20538;-61
2023/02/28 10:25:21;;;;;;;3.20;2.33;;;3.30;98.00;;;;;;5092075;28;20516;-61
2023/02/28 10:27:50;;;;;;;5.23;2.80;;;3.40;98.00;;;;;;5092171;28;20517;-61
2023/02/28 10:30:17;;;;;;;5.13;3.23;;;3.60;98.00;;;;;;5091969;28;20809;-60
2023/02/28 10:32:49;;;;;;;5.97;3.13;;;3.60;98.00;;;;;;5092158;28;20487;-60
2023/02/28 10:35:20;;;;;;;3.90;2.90;;;3.80;98.00;;;;;;5091874;28;20490;-61
2023/02/28 10:37:49;;;;;;;4.13;2.87;;;3.90;98.00;;;;;;5091989;28;20448;-61
2023/02/28 10:40:30;;;;;;;3.47;3.00;;;4.10;98.00;;;;;;5091408;28;20464;-61
2023/02/28 10:42:58;;;;;;;4.50;2.90;;;4.40;98.00;;;;;;5091902;28;20504;-60
2023/02/28 10:45:26;;;;;;;11.10;3.70;;;4.80;98.00;;;;;;5091877;28;20452;-61
2023/02/28 10:47:56;;;;;;;4.27;2.53;;;5.10;98.00;;;;;;5092173;28;20950;-61
2023/02/28 10:50:37;;;;;;;7.00;3.80;;;5.40;98.00;;;;;;5091556;28;20458;-61
2023/02/28 10:53:32;;;;;;;3.47;2.57;;;5.60;98.00;;;;;;5091519;28;20523;-61
2023/02/28 10:56:01;;;;;;;6.43;3.10;;;5.90;97.70;;;;;;5091896;28;20941;-61
2023/02/28 10:58:30;;;;;;;6.73;3.03;;;6.20;96.40;;;;;;5091645;28;20454;-62
2023/02/28 11:00:59;;;;;;;6.83;3.47;;;6.30;95.40;;;;;;5091419;28;20465;-61
2023/02/28 11:03:32;;;;;;;6.33;3.27;;;6.60;94.50;;;;;;5091392;28;20492;-61
2023/02/28 11:06:07;;;;;;;6.17;3.37;;;6.80;94.20;;;;;;5091578;28;20463;-61
2023/02/28 11:08:48;;;;;;;7.57;3.87;;;6.90;93.90;;;;;;5091345;28;20489;-61
2023/02/28 11:11:17;;;;;;;6.20;2.70;;;7.10;92.90;;;;;;5090816;28;20459;-61
2023/02/28 11:13:47;;;;;;;6.20;3.17;;;7.20;92.10;;;;;;5090412;28;20551;-61
2023/02/28 11:16:16;;;;;;;6.70;3.13;;;7.50;93.10;;;;;;5091314;28;20487;-61
2023/02/28 11:18:48;;;;;;;9.17;4.40;;;7.80;91.30;;;;;;5091393;28;20833;-62
2023/02/28 11:21:27;;;;;;;9.60;3.40;;;7.90;91.60;;;;;;5091136;28;20885;-61
2023/02/28 11:24:01;;;;;;;8.00;4.17;;;7.80;91.20;;;;;;5091104;28;20955;-61
2023/02/28 11:26:39;;;;;;;7.63;3.43;;;7.70;91.80;;;;;;5091055;28;20456;-61
2023/02/28 11:29:20;;;;;;;8.10;4.00;;;7.80;91.70;;;;;;5090982;28;20873;-61
2023/02/28 11:32:05;;;;;;;8.00;4.30;;;7.90;91.90;;;;;;5091038;28;20541;-61
2023/02/28 11:34:33;;;;;;;7.07;3.83;;;8.20;91.70;;;;;;5091307;28;20497;-61
2023/02/28 11:37:04;;;;;;;5.73;3.00;;;8.20;90.60;;;;;;5090966;28;20510;-61
2023/02/28 11:39:33;;;;;;;5.47;3.80;;;8.40;90.40;;;;;;5091245;28;20464;-62
2023/02/28 11:42:17;;;;;;;5.97;3.80;;;8.50;90.30;;;;;;5090852;28;20474;-61
2023/02/28 11:45:02;;;;;;;6.50;3.70;;;8.70;89.30;;;;;;5091236;28;20486;-61
2023/02/28 11:47:35;;;;;;;10.90;3.70;;;8.70;89.70;;;;;;5091160;28;20491;-61
2023/02/28 11:50:19;;;;;;;5.47;2.63;;;8.90;88.50;;;;;;5091006;28;20453;-62
2023/02/28 11:52:52;;;;;;;8.13;4.20;;;9.00;88.60;;;;;;5090775;28;20456;-61
2023/02/28 11:55:24;;;;;;;7.10;3.67;;;8.80;88.10;;;;;;5090791;28;20793;-61
2023/02/28 11:58:14;;;;;;;7.30;3.30;;;8.90;88.70;;;;;;5090935;28;20458;-62
2023/02/28 12:00:55;;;;;;;10.67;4.57;;;8.90;88.40;;;;;;5090486;28;20531;-61
2023/02/28 12:03:29;;;;;;;6.10;3.30;;;8.80;88.30;;;;;;5090762;28;20446;-61
2023/02/28 12:06:07;;;;;;;10.70;4.30;;;8.70;88.10;;;;;;5090479;28;20460;-61
2023/02/28 12:08:47;;;;;;;12.47;3.97;;;8.60;88.70;;;;;;5089676;28;20449;-61
2023/02/28 12:11:26;;;;;;;9.20;3.80;;;8.30;88.50;;;;;;5089283;28;20462;-61
2023/02/28 12:14:08;;;;;;;7.33;3.30;;;8.30;89.60;;;;;;5090504;28;20986;-61
2023/02/28 12:17:04;;;;;;;9.07;3.40;;;8.50;89.20;;;;;;5089341;28;20470;-61
2023/02/28 12:19:42;;;;;;;6.80;3.77;;;8.70;88.50;;;;;;5090598;28;20494;-61
2023/02/28 12:22:28;;;;;;;9.83;3.60;;;9.00;87.60;;;;;;5090259;28;20474;-61
2023/02/28 12:25:28;;;;;;;8.07;3.60;;;9.10;87.50;;;;;;5072524;28;20542;-61
2023/02/28 12:27:56;;;;;;;7.47;3.33;;;9.60;86.90;;;;;;5048394;28;20776;-61
2023/02/28 12:30:28;;;;;;;10.70;3.60;;;10.00;85.80;;;;;;5073975;28;20460;-61
2023/02/28 12:32:59;;;;;;;6.50;3.13;;;10.20;84.80;;;;;;5073884;28;20456;-62
2023/02/28 12:35:33;;;;;;;7.87;4.27;;;10.30;84.60;;;;;;5073881;28;20460;-62
2023/02/28 12:38:06;;;;;;;7.63;4.10;;;10.50;84.70;;;;;;5074063;28;20562;-61
2023/02/28 12:40:43;;;;;;;11.43;3.63;;;10.60;83.00;;;;;;5073747;28;20459;-62
2023/02/28 12:43:12;;;;;;;9.53;3.50;;;10.40;84.10;;;;;;5074347;28;20460;-61
2023/02/28 12:45:44;;;;;;;10.23;3.90;;;10.70;83.70;;;;;;5482372;22;20465;-67
2023/02/28 12:48:16;;;;;;;10.70;4.10;;;10.90;83.90;;;;;;5053858;28;20465;-64
2023/02/28 12:50:44;;;;;;;8.27;3.60;;;11.00;82.40;;;;;;5053830;28;20513;-64
2023/02/28 12:53:18;;;;;;;8.97;3.70;;;11.00;82.60;;;;;;5053597;28;20462;-66
2023/02/28 12:55:54;;;;;;;7.40;3.83;;;11.00;82.20;;;;;;5053630;28;20974;-66
2023/02/28 12:58:34;;;;;;;8.63;3.43;;;10.90;82.50;;;;;;5053514;28;20456;-65
2023/02/28 13:01:30;;;;;;;10.27;3.73;;;10.70;82.90;;;;;;5053482;28;20461;-65
2023/02/28 13:04:25;;;;;;;6.70;3.17;;;10.80;83.00;;;;;;5037378;28;20477;-65
2023/02/28 13:07:09;;;;;;;5.87;3.00;;;11.00;82.50;;;;;;5053537;28;20468;-66
2023/02/28 13:09:36;;;;;;;7.80;3.63;;;11.00;82.00;;;;;;5053331;28;20519;-66
2023/02/28 13:12:14;;;;;;;6.10;3.33;;;11.10;82.50;;;;;;5035410;28;20451;-64
2023/02/28 13:14:43;;;;;;;11.43;4.90;;;11.40;81.70;;;;;;5035737;28;20496;-65
2023/02/28 13:17:19;;;;;;;8.40;3.43;;;11.70;81.10;;;;;;5053436;28;20503;-67